Time;durP1;ratioP1;P1;durP2;ratioP2;P2;SDS_P1;SDS_P2;PMS_P1;PMS_P2;Temp;Humidity;BMP_temperature;BMP_pressure;BME280_temperature;BME280_humidity;BME280_pressure;Samples;Min_cycle;Max_cycle;Signal;HPM_P1;HPM_P2
2022/03/10 00:00:59;;;;;;;11.15;7.07;;;6.60;54.70;;;;;;2082493;28;20574;-89
2022/03/10 00:02:00;;;;;;;12.05;7.75;;;6.60;54.60;;;;;;2074919;28;20129;-89
2022/03/10 00:03:00;;;;;;;12.52;7.47;;;6.70;54.60;;;;;;2072249;28;20472;-89
2022/03/10 00:04:01;;;;;;;12.68;7.60;;;6.70;54.60;;;;;;2074482;28;20030;-89
2022/03/10 00:05:02;;;;;;;13.20;7.63;;;6.70;54.50;;;;;;2075722;28;20123;-88
2022/03/10 00:06:03;;;;;;;12.32;7.45;;;6.70;54.50;;;;;;2078800;28;20086;-88
2022/03/10 00:07:04;;;;;;;13.05;7.90;;;6.70;54.50;;;;;;2081754;28;20033;-88
2022/03/10 00:08:05;;;;;;;13.23;7.95;;;6.70;54.40;;;;;;2081375;28;20029;-89
2022/03/10 00:09:06;;;;;;;12.52;7.75;;;6.70;54.50;;;;;;2072066;28;20441;-89
2022/03/10 00:10:07;;;;;;;12.25;7.53;;;6.70;54.40;;;;;;2077403;28;20018;-89
2022/03/10 00:11:08;;;;;;;11.88;7.35;;;6.70;54.40;;;;;;2079654;28;20131;-89
2022/03/10 00:12:09;;;;;;;11.80;7.47;;;6.70;54.40;;;;;;2079156;28;20018;-89
2022/03/10 00:13:10;;;;;;;11.95;7.43;;;6.70;54.40;;;;;;2082242;28;20026;-88
2022/03/10 00:14:11;;;;;;;12.43;7.38;;;6.70;54.30;;;;;;2074147;28;20068;-89
2022/03/10 00:15:11;;;;;;;15.00;7.55;;;6.70;54.40;;;;;;2074009;28;20372;-88
2022/03/10 00:16:12;;;;;;;12.93;8.25;;;6.70;54.40;;;;;;2072665;28;20121;-89
2022/03/10 00:17:13;;;;;;;12.75;7.57;;;6.70;54.40;;;;;;2081667;28;20569;-88
2022/03/10 00:18:13;;;;;;;12.90;7.80;;;6.70;54.40;;;;;;2083127;28;20068;-88
2022/03/10 00:19:14;;;;;;;13.93;8.25;;;6.70;54.40;;;;;;2082561;28;20046;-88
2022/03/10 00:20:15;;;;;;;13.50;8.15;;;6.70;54.50;;;;;;2082538;28;20033;-89
2022/03/10 00:21:16;;;;;;;12.35;7.60;;;6.70;54.50;;;;;;2073477;28;20065;-88
2022/03/10 00:22:16;;;;;;;13.23;7.75;;;6.70;54.40;;;;;;2073343;28;20508;-89
2022/03/10 00:23:17;;;;;;;13.55;8.52;;;6.60;54.40;;;;;;2073287;28;20026;-89
2022/03/10 00:24:18;;;;;;;12.27;7.60;;;6.60;54.50;;;;;;2074021;28;20079;-89
2022/03/10 00:25:19;;;;;;;12.63;7.63;;;6.60;54.50;;;;;;2082493;28;20030;-88
2022/03/10 00:26:20;;;;;;;13.13;7.57;;;6.60;54.60;;;;;;2082339;28;20024;-88
2022/03/10 00:27:21;;;;;;;12.05;7.85;;;6.50;54.60;;;;;;2078918;28;20121;-88
2022/03/10 00:28:21;;;;;;;12.27;7.90;;;6.50;54.60;;;;;;2074286;28;20140;-89
2022/03/10 00:29:22;;;;;;;13.13;8.23;;;6.50;54.60;;;;;;2065134;28;20034;-88
2022/03/10 00:30:23;;;;;;;11.88;7.43;;;6.50;54.60;;;;;;2076519;28;20827;-88
2022/03/10 00:31:23;;;;;;;12.73;7.70;;;6.50;54.60;;;;;;2065772;28;20026;-89
2022/03/10 00:32:24;;;;;;;12.27;7.40;;;6.50;54.60;;;;;;2066287;28;20484;-88
2022/03/10 00:33:24;;;;;;;12.25;7.60;;;6.50;54.70;;;;;;2082793;28;20037;-88
2022/03/10 00:34:25;;;;;;;13.80;7.88;;;6.50;54.60;;;;;;2071327;28;20026;-88
2022/03/10 00:35:26;;;;;;;11.90;7.55;;;6.50;54.60;;;;;;2073719;28;20034;-88
2022/03/10 00:36:27;;;;;;;13.75;7.80;;;6.50;54.60;;;;;;2074205;28;21867;-89
2022/03/10 00:37:28;;;;;;;11.77;7.47;;;6.50;54.70;;;;;;2072957;28;20434;-89
2022/03/10 00:38:29;;;;;;;11.45;7.13;;;6.40;54.70;;;;;;2074355;28;20022;-89
2022/03/10 00:39:29;;;;;;;11.57;7.30;;;6.40;54.80;;;;;;2080213;28;20038;-88
2022/03/10 00:40:30;;;;;;;13.13;7.35;;;6.40;54.90;;;;;;2081588;28;20033;-88
2022/03/10 00:41:31;;;;;;;13.15;7.78;;;6.40;55.00;;;;;;2079695;28;20025;-89
2022/03/10 00:42:36;;;;;;;11.25;7.45;;;6.40;55.00;;;;;;2081722;28;20034;-89
2022/03/10 00:43:37;;;;;;;12.27;6.80;;;6.30;55.00;;;;;;2081417;28;20030;-89
2022/03/10 00:44:37;;;;;;;11.13;6.63;;;6.40;55.10;;;;;;2082785;28;20037;-89
2022/03/10 00:45:38;;;;;;;11.55;7.15;;;6.30;55.20;;;;;;2080117;28;20032;-89
2022/03/10 00:46:39;;;;;;;12.80;7.50;;;6.30;55.30;;;;;;2081907;28;20036;-89
2022/03/10 00:47:40;;;;;;;12.93;7.03;;;6.30;55.40;;;;;;2082501;28;20037;-89
2022/03/10 00:48:41;;;;;;;11.40;7.03;;;6.30;55.40;;;;;;2081895;28;20095;-89
2022/03/10 00:49:42;;;;;;;11.02;6.72;;;6.30;55.40;;;;;;2073981;28;20034;-89
2022/03/10 00:50:42;;;;;;;12.93;7.03;;;6.30;55.50;;;;;;2065920;28;20117;-90
2022/03/10 00:51:45;;;;;;;10.20;6.43;;;6.20;56.10;;;;;;2071953;28;20488;-88
2022/03/10 00:52:46;;;;;;;11.70;6.65;;;6.20;55.60;;;;;;2082494;28;20036;-88
2022/03/10 00:53:47;;;;;;;11.10;6.45;;;6.20;55.70;;;;;;2087732;28;20029;-88
2022/03/10 00:54:48;;;;;;;12.18;7.30;;;6.20;55.80;;;;;;2081971;28;20117;-88
2022/03/10 00:55:48;;;;;;;10.40;6.35;;;6.20;55.90;;;;;;2072570;28;20080;-89
2022/03/10 00:56:49;;;;;;;10.77;6.40;;;6.10;55.80;;;;;;2082134;28;20124;-89
2022/03/10 00:57:50;;;;;;;11.30;6.80;;;6.20;55.90;;;;;;2076348;28;20030;-88
2022/03/10 00:58:50;;;;;;;10.95;6.68;;;6.20;55.90;;;;;;2082801;28;20030;-89
2022/03/10 00:59:51;;;;;;;10.57;6.53;;;6.10;55.90;;;;;;2082221;28;20049;-89
2022/03/10 01:00:52;;;;;;;12.23;7.38;;;6.10;55.90;;;;;;2069149;28;20034;-89
2022/03/10 01:01:52;;;;;;;10.05;6.45;;;6.10;55.90;;;;;;2058611;28;20035;-89
2022/03/10 01:02:53;;;;;;;11.25;6.93;;;6.10;56.00;;;;;;2058292;28;20035;-89
2022/03/10 01:03:53;;;;;;;11.10;6.60;;;6.10;56.00;;;;;;2043625;29;20051;-89
2022/03/10 01:04:54;;;;;;;11.38;6.97;;;6.00;56.00;;;;;;2064188;28;20058;-89
2022/03/10 01:05:55;;;;;;;11.00;6.97;;;6.00;56.00;;;;;;2065418;28;20034;-89
2022/03/10 01:06:55;;;;;;;10.95;7.20;;;6.00;56.00;;;;;;2065674;28;20030;-89
2022/03/10 01:07:56;;;;;;;11.23;7.13;;;6.00;56.10;;;;;;2065399;28;20465;-89
2022/03/10 01:08:56;;;;;;;11.50;6.93;;;5.90;56.60;;;;;;2075758;28;20117;-89
2022/03/10 01:09:57;;;;;;;10.70;6.85;;;6.00;56.10;;;;;;2077046;28;20176;-89
2022/03/10 01:10:58;;;;;;;12.85;7.63;;;5.90;56.10;;;;;;2082706;28;20483;-89
2022/03/10 01:11:58;;;;;;;10.90;6.50;;;5.90;56.20;;;;;;2079779;28;20079;-89
2022/03/10 01:12:59;;;;;;;11.85;7.45;;;5.90;56.80;;;;;;2079718;28;20022;-89
2022/03/10 01:14:00;;;;;;;11.20;6.95;;;5.90;56.30;;;;;;2073923;28;20028;-89
2022/03/10 01:15:02;;;;;;;10.98;6.90;;;5.90;56.40;;;;;;2073932;28;20076;-89
2022/03/10 01:16:03;;;;;;;10.48;6.60;;;5.80;56.30;;;;;;2079402;28;20052;-89
2022/03/10 01:17:04;;;;;;;12.48;7.32;;;5.80;56.40;;;;;;2081630;28;20046;-88
2022/03/10 01:18:04;;;;;;;11.50;6.60;;;5.80;56.50;;;;;;2081202;28;20045;-89
2022/03/10 01:19:05;;;;;;;11.43;6.57;;;5.70;56.40;;;;;;2082434;28;20055;-89
2022/03/10 01:20:06;;;;;;;14.88;7.50;;;5.70;56.50;;;;;;2082460;28;20509;-89
2022/03/10 01:21:07;;;;;;;13.65;7.50;;;5.80;56.60;;;;;;2082214;28;20064;-88
2022/03/10 01:22:07;;;;;;;11.45;6.60;;;5.80;56.50;;;;;;2082218;28;20033;-89
2022/03/10 01:23:10;;;;;;;11.55;6.93;;;5.80;56.50;;;;;;2077948;28;20037;-89
2022/03/10 01:24:11;;;;;;;11.73;7.32;;;5.80;56.50;;;;;;2058154;28;20059;-89
2022/03/10 01:25:13;;;;;;;10.93;6.90;;;5.80;56.50;;;;;;2062672;28;20030;-89
2022/03/10 01:26:13;;;;;;;12.73;7.50;;;5.80;57.10;;;;;;2073745;28;20756;-88
2022/03/10 01:27:14;;;;;;;11.85;7.18;;;5.80;56.50;;;;;;2074548;28;20103;-89
2022/03/10 01:28:14;;;;;;;12.52;7.47;;;5.80;56.50;;;;;;2073901;28;20108;-89
2022/03/10 01:29:15;;;;;;;11.63;6.97;;;5.80;56.50;;;;;;2074935;28;20026;-88
2022/03/10 01:30:16;;;;;;;11.93;7.20;;;5.80;56.40;;;;;;2082510;28;20136;-89
2022/03/10 01:31:17;;;;;;;11.85;6.85;;;5.80;56.50;;;;;;2081816;28;20380;-89
2022/03/10 01:32:18;;;;;;;11.95;7.32;;;5.80;56.40;;;;;;2082260;28;20029;-89
2022/03/10 01:33:18;;;;;;;12.10;7.22;;;5.80;56.40;;;;;;2081752;28;20031;-89
2022/03/10 01:34:19;;;;;;;10.85;6.95;;;5.80;56.40;;;;;;2082181;28;20030;-89
2022/03/10 01:35:20;;;;;;;12.45;7.55;;;5.80;56.40;;;;;;2082553;28;20032;-89
2022/03/10 01:36:20;;;;;;;10.05;6.20;;;5.80;56.50;;;;;;2082397;28;20124;-88
2022/03/10 01:37:21;;;;;;;11.48;6.75;;;5.80;56.50;;;;;;2081548;28;20069;-89
2022/03/10 01:38:21;;;;;;;10.45;7.07;;;5.80;56.50;;;;;;2073725;28;20571;-89
2022/03/10 01:39:22;;;;;;;12.23;7.55;;;5.80;56.50;;;;;;2081990;28;20598;-88
2022/03/10 01:40:23;;;;;;;12.43;7.10;;;5.80;56.50;;;;;;2073554;28;20196;-89
2022/03/10 01:41:23;;;;;;;11.93;7.38;;;5.80;56.50;;;;;;2064851;28;20057;-88
2022/03/10 01:42:24;;;;;;;12.35;7.30;;;5.80;56.50;;;;;;2081582;28;20091;-88
2022/03/10 01:43:24;;;;;;;12.70;7.50;;;5.80;56.50;;;;;;2078088;28;20029;-88
2022/03/10 01:44:25;;;;;;;12.23;7.25;;;5.80;56.50;;;;;;2064931;28;20037;-88
2022/03/10 01:45:26;;;;;;;12.02;7.07;;;5.80;56.50;;;;;;2065499;28;20429;-89
2022/03/10 01:46:27;;;;;;;10.63;6.78;;;5.80;56.50;;;;;;2082125;28;20030;-89
2022/03/10 01:47:27;;;;;;;11.23;6.80;;;5.70;56.40;;;;;;2080833;28;20030;-88
2022/03/10 01:48:28;;;;;;;13.18;7.20;;;5.70;56.50;;;;;;2069987;28;20029;-89
2022/03/10 01:49:29;;;;;;;11.38;6.60;;;5.70;56.50;;;;;;2081697;28;20571;-89
2022/03/10 01:50:29;;;;;;;12.55;7.20;;;5.70;56.60;;;;;;2081798;28;20061;-89
2022/03/10 01:51:31;;;;;;;11.73;7.13;;;5.70;56.60;;;;;;2081082;28;20084;-89
2022/03/10 01:52:32;;;;;;;11.52;6.78;;;5.60;56.60;;;;;;2081662;28;20032;-89
2022/03/10 01:53:33;;;;;;;11.55;7.30;;;5.70;56.70;;;;;;2072681;28;20049;-89
2022/03/10 01:54:34;;;;;;;11.60;7.13;;;5.60;56.70;;;;;;2081234;28;20028;-89
2022/03/10 01:55:34;;;;;;;12.93;7.80;;;5.60;57.40;;;;;;2081698;28;20034;-88
2022/03/10 01:56:35;;;;;;;12.70;7.40;;;5.60;56.90;;;;;;2081724;28;20026;-88
2022/03/10 01:57:37;;;;;;;11.35;6.78;;;5.60;57.00;;;;;;2081715;28;20060;-89
2022/03/10 01:58:38;;;;;;;10.85;7.00;;;5.50;57.00;;;;;;2073210;28;20026;-89
2022/03/10 01:59:40;;;;;;;10.93;6.63;;;5.50;57.70;;;;;;2073488;28;20030;-89
2022/03/10 02:00:40;;;;;;;10.98;7.15;;;5.50;57.20;;;;;;2080857;28;20033;-88
2022/03/10 02:01:41;;;;;;;11.50;7.13;;;5.50;57.20;;;;;;2081667;28;20037;-89
2022/03/10 02:02:42;;;;;;;10.32;6.38;;;5.50;57.30;;;;;;2080504;28;20091;-89
2022/03/10 02:03:43;;;;;;;13.57;7.65;;;5.50;57.40;;;;;;2081231;28;20038;-89
2022/03/10 02:04:43;;;;;;;12.40;7.25;;;5.40;57.40;;;;;;2081331;28;20037;-89
2022/03/10 02:05:44;;;;;;;11.57;6.97;;;5.40;57.50;;;;;;2066766;28;20497;-89
2022/03/10 02:06:45;;;;;;;11.32;6.57;;;5.40;57.60;;;;;;2072326;28;20017;-89
2022/03/10 02:10:27;;;;;;;12.23;6.82;;;5.30;57.70;;;;;;2068321;28;20031;-89
2022/03/10 02:11:28;;;;;;;11.30;6.80;;;5.40;57.70;;;;;;2062712;28;20030;-88
2022/03/10 02:12:30;;;;;;;12.00;6.70;;;5.40;57.70;;;;;;2078054;28;20517;-89
2022/03/10 02:13:31;;;;;;;11.73;7.70;;;5.40;57.70;;;;;;2079385;28;20080;-89
2022/03/10 02:17:22;;;;;;;11.32;6.95;;;5.40;57.70;;;;;;2081505;28;20110;-88
2022/03/10 02:18:23;;;;;;;10.82;6.82;;;5.40;57.60;;;;;;2073186;28;20124;-88
2022/03/10 02:19:23;;;;;;;11.07;6.70;;;5.30;57.60;;;;;;2074655;28;20135;-89
2022/03/10 02:20:24;;;;;;;12.30;7.28;;;5.30;57.60;;;;;;2082203;28;20430;-89
2022/03/10 02:21:25;;;;;;;13.00;8.00;;;5.30;57.60;;;;;;2080988;28;20399;-88
2022/03/10 02:22:26;;;;;;;12.98;7.93;;;5.30;57.70;;;;;;2081189;28;20057;-89
2022/03/10 02:23:27;;;;;;;12.85;7.22;;;5.30;57.70;;;;;;2081185;28;20048;-89
2022/03/10 02:24:28;;;;;;;11.52;7.32;;;5.30;57.70;;;;;;2080944;28;20037;-89
2022/03/10 02:25:29;;;;;;;12.15;7.63;;;5.30;57.70;;;;;;2063755;28;20033;-89
2022/03/10 02:26:29;;;;;;;11.90;6.70;;;5.20;57.70;;;;;;2073011;28;20084;-89
2022/03/10 02:27:30;;;;;;;12.63;7.40;;;5.30;57.90;;;;;;2073821;28;20040;-89
2022/03/10 02:28:32;;;;;;;11.98;7.28;;;5.20;57.90;;;;;;2072419;28;20061;-89
2022/03/10 02:29:33;;;;;;;12.70;7.45;;;5.20;57.90;;;;;;2064379;28;20057;-88
2022/03/10 02:30:35;;;;;;;12.13;7.18;;;5.20;57.90;;;;;;2072840;28;20745;-87
2022/03/10 02:31:36;;;;;;;11.70;6.97;;;5.20;58.00;;;;;;2065047;28;20026;-88
2022/03/10 02:32:36;;;;;;;12.60;7.53;;;5.20;58.00;;;;;;2069998;28;20061;-87
2022/03/10 02:33:38;;;;;;;12.23;7.43;;;5.20;58.00;;;;;;2080121;28;20122;-88
2022/03/10 02:34:39;;;;;;;12.35;7.65;;;5.20;58.00;;;;;;2080912;28;20412;-88
2022/03/10 02:35:40;;;;;;;12.35;7.70;;;5.20;57.90;;;;;;2080815;28;20041;-89
2022/03/10 02:36:41;;;;;;;11.90;7.53;;;5.20;57.90;;;;;;2080879;28;20404;-89
2022/03/10 02:37:42;;;;;;;12.60;7.88;;;5.20;57.90;;;;;;2064941;28;20101;-88
2022/03/10 02:38:43;;;;;;;11.15;7.03;;;5.20;57.90;;;;;;2073072;28;20109;-89
2022/03/10 02:39:45;;;;;;;12.23;7.72;;;5.20;57.90;;;;;;2073175;28;20029;-89
2022/03/10 02:40:49;;;;;;;11.70;7.65;;;5.20;58.00;;;;;;2073028;28;20424;-88
2022/03/10 02:41:50;;;;;;;11.23;7.10;;;5.20;57.90;;;;;;2081371;28;20075;-88
2022/03/10 02:42:51;;;;;;;11.15;7.57;;;5.20;57.90;;;;;;2080318;28;20479;-88
2022/03/10 02:43:51;;;;;;;12.55;7.22;;;5.20;58.00;;;;;;2078704;28;20029;-88
2022/03/10 02:44:52;;;;;;;13.95;8.23;;;5.20;58.00;;;;;;2081367;28;20017;-89
2022/03/10 02:45:52;;;;;;;11.43;7.20;;;5.20;58.10;;;;;;2081636;28;20036;-89
2022/03/10 02:46:53;;;;;;;13.02;7.65;;;5.20;58.10;;;;;;2081481;28;20037;-88
2022/03/10 02:47:54;;;;;;;12.38;7.13;;;5.20;58.20;;;;;;2072701;28;20048;-89
2022/03/10 02:48:54;;;;;;;11.00;7.15;;;5.20;58.20;;;;;;2068257;28;20034;-89
2022/03/10 02:49:55;;;;;;;10.80;7.05;;;5.20;58.30;;;;;;2067144;28;20076;-89
2022/03/10 02:50:56;;;;;;;12.02;8.00;;;5.10;58.30;;;;;;2073363;28;20034;-89
2022/03/10 02:51:56;;;;;;;12.25;7.60;;;5.10;58.30;;;;;;2072976;28;20034;-88
2022/03/10 02:52:57;;;;;;;13.70;8.15;;;5.10;58.40;;;;;;2064571;28;20064;-89
2022/03/10 02:53:58;;;;;;;12.77;7.95;;;5.10;58.50;;;;;;2064562;28;20095;-88
2022/03/10 02:54:58;;;;;;;12.32;7.47;;;5.10;58.50;;;;;;2072740;28;20033;-88
2022/03/10 02:55:59;;;;;;;11.88;7.45;;;5.10;58.50;;;;;;2080695;28;20106;-88
2022/03/10 02:57:00;;;;;;;12.50;7.20;;;5.10;58.50;;;;;;2072499;28;20054;-88
2022/03/10 02:58:00;;;;;;;11.27;6.85;;;5.10;58.50;;;;;;2073093;28;20080;-88
2022/03/10 02:59:01;;;;;;;12.05;7.18;;;5.10;58.50;;;;;;2081808;28;20025;-88
2022/03/10 03:00:03;;;;;;;12.90;7.32;;;5.00;58.50;;;;;;2080302;28;20033;-88
2022/03/10 03:01:05;;;;;;;12.05;7.13;;;5.10;58.50;;;;;;2080692;28;20025;-87
2022/03/10 03:02:05;;;;;;;11.55;6.68;;;5.10;58.50;;;;;;2081190;28;20097;-88
2022/03/10 03:03:06;;;;;;;11.82;7.20;;;5.10;58.60;;;;;;2081026;28;20021;-88
2022/03/10 03:04:07;;;;;;;12.60;7.22;;;5.00;58.50;;;;;;2063890;28;20425;-89
2022/03/10 03:05:09;;;;;;;13.23;7.03;;;5.10;58.60;;;;;;2063660;28;20042;-88
2022/03/10 03:06:10;;;;;;;11.52;7.25;;;5.10;58.60;;;;;;2064568;28;20026;-87
2022/03/10 03:07:10;;;;;;;12.52;7.45;;;5.00;58.60;;;;;;2073789;28;20037;-89
2022/03/10 03:08:11;;;;;;;10.73;7.22;;;5.10;58.70;;;;;;2081224;28;20060;-88
2022/03/10 03:09:11;;;;;;;12.05;7.18;;;5.10;58.70;;;;;;2072947;28;20540;-89
2022/03/10 03:10:12;;;;;;;13.10;7.25;;;5.10;59.40;;;;;;2070557;28;20030;-88
2022/03/10 03:11:14;;;;;;;12.13;7.00;;;5.10;58.80;;;;;;2080684;28;20025;-88
2022/03/10 03:12:14;;;;;;;10.93;7.25;;;5.00;58.90;;;;;;2081180;28;20075;-88
2022/03/10 03:13:15;;;;;;;11.02;6.65;;;5.00;59.00;;;;;;2063828;28;20120;-88
2022/03/10 03:14:16;;;;;;;11.77;7.43;;;5.00;59.10;;;;;;2059264;28;20403;-89
2022/03/10 03:15:18;;;;;;;12.52;6.85;;;5.00;59.20;;;;;;2073043;28;20030;-89
2022/03/10 03:16:18;;;;;;;12.02;7.45;;;5.00;59.20;;;;;;2081045;28;20079;-89
2022/03/10 03:17:19;;;;;;;12.48;7.55;;;5.00;59.20;;;;;;2072014;28;20463;-88
2022/03/10 03:18:19;;;;;;;11.05;6.85;;;5.00;59.20;;;;;;2081248;28;20460;-88
2022/03/10 03:19:20;;;;;;;11.98;7.60;;;5.00;59.20;;;;;;2072744;28;20144;-89
2022/03/10 03:20:21;;;;;;;12.43;7.80;;;5.00;59.20;;;;;;2073964;28;20025;-88
2022/03/10 03:21:23;;;;;;;12.88;7.30;;;5.00;59.20;;;;;;2082115;28;20044;-88
2022/03/10 03:22:24;;;;;;;12.00;7.38;;;5.00;59.20;;;;;;2076107;28;20107;-89
2022/03/10 03:23:25;;;;;;;11.23;6.95;;;5.00;59.30;;;;;;2075706;28;20026;-89
2022/03/10 03:24:25;;;;;;;11.82;7.18;;;5.00;59.30;;;;;;2082004;28;20025;-89
2022/03/10 03:25:26;;;;;;;11.30;7.03;;;5.00;59.30;;;;;;2068149;28;20057;-89
2022/03/10 03:26:27;;;;;;;12.13;6.90;;;5.00;59.30;;;;;;2068009;28;20475;-88
2022/03/10 03:27:28;;;;;;;11.85;6.60;;;5.00;59.40;;;;;;2083559;28;20368;-89
2022/03/10 03:28:28;;;;;;;12.23;7.30;;;5.00;59.40;;;;;;2084010;28;20037;-88
2022/03/10 03:29:29;;;;;;;12.45;7.40;;;5.00;59.40;;;;;;2066157;28;20032;-88
2022/03/10 03:30:30;;;;;;;13.15;7.68;;;4.90;59.40;;;;;;2073081;28;20088;-88
2022/03/10 03:31:30;;;;;;;11.38;7.05;;;5.00;59.40;;;;;;2079860;28;20033;-88
2022/03/10 03:32:31;;;;;;;12.95;7.50;;;5.00;59.40;;;;;;2071953;28;20041;-88
2022/03/10 03:33:32;;;;;;;11.10;7.20;;;4.90;59.30;;;;;;2071987;28;20037;-88
2022/03/10 03:34:32;;;;;;;11.93;6.75;;;4.90;59.20;;;;;;2064672;28;20038;-89
2022/03/10 03:35:33;;;;;;;15.82;8.15;;;5.00;59.20;;;;;;2072400;28;20022;-88
2022/03/10 03:36:34;;;;;;;11.48;7.20;;;5.00;59.20;;;;;;2073410;28;20034;-88
2022/03/10 03:37:34;;;;;;;12.18;7.57;;;5.00;59.20;;;;;;2074495;28;20494;-88
2022/03/10 03:38:36;;;;;;;11.60;7.32;;;5.00;59.20;;;;;;2073773;28;20022;-88
2022/03/10 03:39:36;;;;;;;12.68;7.65;;;5.00;59.20;;;;;;2066393;28;20037;-88
2022/03/10 03:40:37;;;;;;;13.77;7.55;;;5.00;59.20;;;;;;2062434;28;20023;-88
2022/03/10 03:41:38;;;;;;;13.75;8.05;;;5.00;59.20;;;;;;2076471;28;20034;-88
2022/03/10 03:42:39;;;;;;;12.20;7.45;;;4.90;59.20;;;;;;2071885;28;20046;-88
2022/03/10 03:43:40;;;;;;;13.75;7.75;;;4.90;59.20;;;;;;2066649;28;20409;-88
2022/03/10 03:44:40;;;;;;;12.45;7.03;;;4.90;59.30;;;;;;2080670;28;20029;-88
2022/03/10 03:45:41;;;;;;;11.93;7.32;;;4.90;59.30;;;;;;2080549;28;20415;-88
2022/03/10 03:46:41;;;;;;;13.20;7.53;;;4.90;59.40;;;;;;2071916;28;20034;-88
2022/03/10 03:47:42;;;;;;;12.73;7.60;;;4.90;59.50;;;;;;2071260;28;20034;-89
2022/03/10 03:48:43;;;;;;;12.38;7.38;;;4.80;59.50;;;;;;2079343;28;20052;-88
2022/03/10 03:49:43;;;;;;;11.75;6.85;;;4.80;59.50;;;;;;2080044;28;20025;-89
2022/03/10 03:50:44;;;;;;;11.35;7.00;;;4.80;59.50;;;;;;2064709;28;20451;-88
2022/03/10 03:51:44;;;;;;;12.45;7.53;;;4.80;59.60;;;;;;2071439;28;20026;-89
2022/03/10 03:52:45;;;;;;;11.18;6.80;;;4.80;59.70;;;;;;2078838;28;20048;-88
2022/03/10 03:53:46;;;;;;;11.95;7.13;;;4.70;59.70;;;;;;2088955;28;20029;-88
2022/03/10 03:54:46;;;;;;;12.75;7.85;;;4.70;59.70;;;;;;2079652;28;20041;-88
2022/03/10 03:55:47;;;;;;;11.07;7.15;;;4.70;59.70;;;;;;2072179;28;20112;-88
2022/03/10 03:56:48;;;;;;;11.40;7.10;;;4.70;59.60;;;;;;2080095;28;20029;-89
2022/03/10 03:57:48;;;;;;;11.80;7.65;;;4.70;59.60;;;;;;2080586;28;20033;-89
2022/03/10 03:58:49;;;;;;;12.18;7.45;;;4.70;59.60;;;;;;2072588;28;20053;-89
2022/03/10 03:59:49;;;;;;;14.05;7.68;;;4.80;59.70;;;;;;2081011;28;20474;-89
2022/03/10 04:00:50;;;;;;;11.57;6.97;;;4.70;59.60;;;;;;2072427;28;20034;-89
2022/03/10 04:01:51;;;;;;;11.88;7.70;;;4.70;59.70;;;;;;2080661;28;20068;-88
2022/03/10 04:02:53;;;;;;;13.27;7.82;;;4.70;59.70;;;;;;2080869;28;20083;-88
2022/03/10 04:03:54;;;;;;;10.88;6.82;;;4.80;59.80;;;;;;2063256;28;20042;-88
2022/03/10 04:04:54;;;;;;;11.45;6.88;;;4.80;59.80;;;;;;2072794;28;20052;-88
2022/03/10 04:05:55;;;;;;;12.98;7.70;;;4.70;59.70;;;;;;2080502;28;20030;-88
2022/03/10 04:06:56;;;;;;;12.57;7.20;;;4.70;59.80;;;;;;2080579;28;20025;-88
2022/03/10 04:07:57;;;;;;;13.13;7.28;;;4.70;59.90;;;;;;2072730;28;20037;-88
2022/03/10 04:08:58;;;;;;;11.75;7.13;;;4.70;59.90;;;;;;2069499;28;20026;-88
2022/03/10 04:09:58;;;;;;;12.25;7.55;;;4.70;60.00;;;;;;2065436;28;20080;-88
2022/03/10 04:10:59;;;;;;;12.30;7.10;;;4.70;60.00;;;;;;2056591;28;20517;-89
2022/03/10 04:12:01;;;;;;;13.85;8.13;;;4.70;60.10;;;;;;2066282;28;20047;-88
2022/03/10 04:13:02;;;;;;;11.65;6.60;;;4.60;60.10;;;;;;2073411;28;20018;-88
2022/03/10 04:14:03;;;;;;;12.18;7.30;;;4.60;60.20;;;;;;2079330;28;20022;-88
2022/03/10 04:15:04;;;;;;;11.63;7.28;;;4.60;60.20;;;;;;2072713;28;20516;-89
2022/03/10 04:16:06;;;;;;;11.93;7.28;;;4.60;60.30;;;;;;2079476;28;20289;-87
2022/03/10 04:17:06;;;;;;;12.93;7.22;;;4.60;60.30;;;;;;2080777;28;20036;-88
2022/03/10 04:18:07;;;;;;;12.88;7.10;;;4.60;60.30;;;;;;2079894;28;20033;-88
2022/03/10 04:19:08;;;;;;;11.15;6.88;;;4.60;60.30;;;;;;2070683;28;20045;-88
2022/03/10 04:20:13;;;;;;;11.38;7.07;;;4.60;61.00;;;;;;2064763;28;20039;-89
2022/03/10 04:21:13;;;;;;;11.60;7.10;;;4.60;60.30;;;;;;2080467;28;20022;-88
2022/03/10 04:22:14;;;;;;;13.25;7.30;;;4.60;60.30;;;;;;2072396;28;20483;-88
2022/03/10 04:23:15;;;;;;;12.75;7.28;;;4.60;60.30;;;;;;2080767;28;20029;-89
2022/03/10 04:24:16;;;;;;;12.43;7.15;;;4.60;60.30;;;;;;2079497;28;20060;-88
2022/03/10 04:25:16;;;;;;;11.68;7.20;;;4.60;60.40;;;;;;2073144;28;20404;-88
2022/03/10 04:26:17;;;;;;;12.13;7.07;;;4.60;60.50;;;;;;2073373;28;20136;-88
2022/03/10 04:27:17;;;;;;;12.07;7.18;;;4.60;60.60;;;;;;2081507;28;20558;-88
2022/03/10 04:28:18;;;;;;;11.55;6.85;;;4.60;60.70;;;;;;2081217;28;20037;-88
2022/03/10 04:29:19;;;;;;;12.65;7.03;;;4.50;60.70;;;;;;2080875;28;20464;-88
2022/03/10 04:30:23;;;;;;;11.32;6.55;;;4.50;60.80;;;;;;2071962;28;20041;-88
2022/03/10 04:31:24;;;;;;;12.85;7.53;;;4.50;60.90;;;;;;2064874;28;20038;-88
2022/03/10 04:32:25;;;;;;;12.15;7.93;;;4.40;61.00;;;;;;2072608;28;20033;-88
2022/03/10 04:33:25;;;;;;;10.35;6.40;;;4.40;61.10;;;;;;2067924;28;20064;-88
2022/03/10 04:34:26;;;;;;;11.65;7.28;;;4.40;61.30;;;;;;2072702;28;20056;-88
2022/03/10 04:35:27;;;;;;;11.82;7.32;;;4.40;61.40;;;;;;2066611;28;20046;-88
2022/03/10 04:36:28;;;;;;;12.25;7.05;;;4.30;61.40;;;;;;2064642;28;20046;-89
2022/03/10 04:37:28;;;;;;;11.82;7.22;;;4.30;61.50;;;;;;2071547;28;20042;-88
2022/03/10 04:38:29;;;;;;;12.00;7.20;;;4.30;61.60;;;;;;2072477;28;20428;-88
2022/03/10 04:39:30;;;;;;;12.65;7.55;;;4.30;61.60;;;;;;2079241;28;20036;-88
2022/03/10 04:40:32;;;;;;;12.55;7.47;;;4.30;61.70;;;;;;2080482;28;20392;-88
2022/03/10 04:41:34;;;;;;;12.13;7.25;;;4.30;61.70;;;;;;2080656;28;20075;-88
2022/03/10 04:42:36;;;;;;;12.48;7.40;;;4.20;61.80;;;;;;2080641;28;20026;-88
2022/03/10 04:43:36;;;;;;;13.00;7.53;;;4.20;61.80;;;;;;2080211;28;20476;-88
2022/03/10 04:44:37;;;;;;;11.77;7.18;;;4.20;61.90;;;;;;2080772;28;20038;-89
2022/03/10 04:45:37;;;;;;;12.20;7.15;;;4.10;61.90;;;;;;2071639;28;20033;-88
2022/03/10 04:46:38;;;;;;;11.60;7.18;;;4.10;62.00;;;;;;2080632;28;20034;-88
2022/03/10 04:47:41;;;;;;;13.00;6.95;;;4.10;62.20;;;;;;2077496;28;20511;-88
2022/03/10 04:48:42;;;;;;;12.48;7.07;;;4.10;62.30;;;;;;2080603;28;20022;-89
2022/03/10 04:49:43;;;;;;;12.30;7.60;;;4.10;62.30;;;;;;2080452;28;20033;-89
2022/03/10 04:50:44;;;;;;;13.77;7.78;;;4.00;62.30;;;;;;2080638;28;20083;-88
2022/03/10 04:51:45;;;;;;;12.95;7.22;;;4.00;62.30;;;;;;2080464;28;20434;-88
2022/03/10 04:52:46;;;;;;;11.13;7.20;;;4.10;62.40;;;;;;2065429;28;20026;-87
2022/03/10 04:53:47;;;;;;;12.27;7.20;;;4.00;62.40;;;;;;2057820;28;20125;-88
2022/03/10 04:54:47;;;;;;;11.68;7.30;;;4.00;63.10;;;;;;2074129;28;20030;-88
2022/03/10 04:55:48;;;;;;;12.52;7.20;;;4.00;62.50;;;;;;2073258;28;20026;-88
2022/03/10 04:56:48;;;;;;;12.27;7.35;;;4.00;62.50;;;;;;2081666;28;20041;-88
2022/03/10 04:57:49;;;;;;;11.82;6.72;;;4.00;62.60;;;;;;2081492;28;20084;-88
2022/03/10 04:58:50;;;;;;;11.68;7.30;;;4.00;62.70;;;;;;2081562;28;20068;-88
2022/03/10 04:59:50;;;;;;;12.05;7.05;;;4.00;62.70;;;;;;2082482;28;20423;-88
2022/03/10 05:00:51;;;;;;;11.68;6.75;;;4.00;62.70;;;;;;2081735;28;20065;-88
2022/03/10 05:01:52;;;;;;;11.98;7.03;;;4.00;62.70;;;;;;2082175;28;20487;-88
2022/03/10 05:02:52;;;;;;;12.55;7.30;;;4.00;62.60;;;;;;2081144;28;20423;-88
2022/03/10 05:03:53;;;;;;;13.20;7.20;;;4.00;62.50;;;;;;2071710;28;20029;-88
2022/03/10 05:04:53;;;;;;;12.07;7.10;;;4.00;62.40;;;;;;2082081;28;20031;-88
2022/03/10 05:05:54;;;;;;;11.95;7.30;;;4.00;62.40;;;;;;2073794;28;20559;-88
2022/03/10 05:06:55;;;;;;;12.10;7.72;;;4.00;62.30;;;;;;2072309;28;20034;-88
2022/03/10 05:07:55;;;;;;;14.80;8.23;;;4.10;62.30;;;;;;2078925;28;20494;-88
2022/03/10 05:08:56;;;;;;;13.40;7.65;;;4.10;62.30;;;;;;2082328;28;20164;-88
2022/03/10 05:09:58;;;;;;;12.30;7.53;;;4.10;62.20;;;;;;2081625;28;20447;-88
2022/03/10 05:10:59;;;;;;;13.98;8.10;;;4.10;62.10;;;;;;2081848;28;20083;-88
2022/03/10 05:11:59;;;;;;;12.55;8.00;;;4.10;62.10;;;;;;2082145;28;20029;-88
2022/03/10 05:13:03;;;;;;;13.95;8.23;;;4.10;62.00;;;;;;2081928;28;20073;-88
2022/03/10 05:14:04;;;;;;;13.02;7.63;;;4.10;62.00;;;;;;2082246;28;20041;-88
2022/03/10 05:15:05;;;;;;;12.98;7.28;;;4.10;62.00;;;;;;2082529;28;20392;-88
2022/03/10 05:16:06;;;;;;;13.23;7.85;;;4.10;62.00;;;;;;2082089;28;20067;-88
2022/03/10 05:17:06;;;;;;;13.20;7.72;;;4.10;62.00;;;;;;2080946;28;20395;-88
2022/03/10 05:18:07;;;;;;;12.60;7.70;;;4.10;61.90;;;;;;2064605;28;20041;-87
2022/03/10 05:19:07;;;;;;;12.73;7.50;;;4.10;61.90;;;;;;2069663;28;20042;-88
2022/03/10 05:20:09;;;;;;;14.18;7.68;;;4.10;61.90;;;;;;2050948;28;20043;-88
2022/03/10 05:21:10;;;;;;;12.80;7.68;;;4.10;62.00;;;;;;2005807;28;20149;-87
2022/03/10 05:22:10;;;;;;;13.85;8.23;;;4.10;62.00;;;;;;2009730;28;20064;-88
2022/03/10 05:23:11;;;;;;;13.77;8.32;;;4.10;61.90;;;;;;2073279;28;20042;-87